sensor_id;sensor_type;location;lat;lon;timestamp;temperature;humidity
18268;DHT22;9260;49.998;19.880;2023-05-07T00:06:22;9.70;1.00
18268;DHT22;9260;49.998;19.880;2023-05-07T00:16:27;9.80;1.00
18268;DHT22;9260;49.998;19.880;2023-05-07T00:26:30;10.10;1.00
18268;DHT22;9260;49.998;19.880;2023-05-07T00:36:34;9.70;1.00
18268;DHT22;9260;49.998;19.880;2023-05-07T00:46:38;9.60;1.00
18268;DHT22;9260;49.998;19.880;2023-05-07T00:56:42;9.50;1.00
18268;DHT22;9260;49.998;19.880;2023-05-07T01:06:46;9.50;1.00
18268;DHT22;9260;49.998;19.880;2023-05-07T01:16:51;9.50;1.00
18268;DHT22;9260;49.998;19.880;2023-05-07T01:26:59;9.50;1.00
18268;DHT22;9260;49.998;19.880;2023-05-07T01:37:06;9.50;1.00
18268;DHT22;9260;49.998;19.880;2023-05-07T01:47:11;9.50;1.00
18268;DHT22;9260;49.998;19.880;2023-05-07T01:57:14;9.40;1.00
18268;DHT22;9260;49.998;19.880;2023-05-07T02:07:19;9.20;1.00
18268;DHT22;9260;49.998;19.880;2023-05-07T02:17:23;8.80;1.00
18268;DHT22;9260;49.998;19.880;2023-05-07T02:27:28;8.60;1.00
18268;DHT22;9260;49.998;19.880;2023-05-07T02:37:32;8.30;1.00
18268;DHT22;9260;49.998;19.880;2023-05-07T02:47:37;8.20;1.00
18268;DHT22;9260;49.998;19.880;2023-05-07T02:57:41;8.10;1.00
18268;DHT22;9260;49.998;19.880;2023-05-07T03:07:46;7.90;1.00
18268;DHT22;9260;49.998;19.880;2023-05-07T03:17:49;7.90;1.00
18268;DHT22;9260;49.998;19.880;2023-05-07T03:27:55;8.30;1.00
18268;DHT22;9260;49.998;19.880;2023-05-07T03:38:03;7.90;1.00
18268;DHT22;9260;49.998;19.880;2023-05-07T03:48:11;7.80;1.00
18268;DHT22;9260;49.998;19.880;2023-05-07T03:58:14;7.70;1.00
18268;DHT22;9260;49.998;19.880;2023-05-07T04:08:20;8.10;1.00
18268;DHT22;9260;49.998;19.880;2023-05-07T04:18:27;7.90;1.00
18268;DHT22;9260;49.998;19.880;2023-05-07T04:28:32;7.80;1.00
18268;DHT22;9260;49.998;19.880;2023-05-07T04:38:35;5.10;1.00
18268;DHT22;9260;49.998;19.880;2023-05-07T04:48:40;8.10;1.00
18268;DHT22;9260;49.998;19.880;2023-05-07T04:58:44;7.60;1.00
18268;DHT22;9260;49.998;19.880;2023-05-07T05:08:51;7.60;1.00
18268;DHT22;9260;49.998;19.880;2023-05-07T05:18:55;7.40;1.00
18268;DHT22;9260;49.998;19.880;2023-05-07T05:29:00;8.10;1.00
18268;DHT22;9260;49.998;19.880;2023-05-07T05:39:05;7.50;1.00
18268;DHT22;9260;49.998;19.880;2023-05-07T05:49:10;7.40;1.00
18268;DHT22;9260;49.998;19.880;2023-05-07T05:59:14;7.40;1.00
18268;DHT22;9260;49.998;19.880;2023-05-07T06:09:19;7.70;1.00
18268;DHT22;9260;49.998;19.880;2023-05-07T06:19:22;7.30;1.00
18268;DHT22;9260;49.998;19.880;2023-05-07T06:29:30;7.20;1.00
18268;DHT22;9260;49.998;19.880;2023-05-07T06:39:37;7.00;1.00
18268;DHT22;9260;49.998;19.880;2023-05-07T06:49:43;7.70;1.00
18268;DHT22;9260;49.998;19.880;2023-05-07T06:59:49;6.80;1.00
18268;DHT22;9260;49.998;19.880;2023-05-07T07:09:55;7.10;1.00
18268;DHT22;9260;49.998;19.880;2023-05-07T07:19:58;7.50;1.00
18268;DHT22;9260;49.998;19.880;2023-05-07T07:30:06;7.70;1.00
18268;DHT22;9260;49.998;19.880;2023-05-07T07:40:13;7.40;1.00
18268;DHT22;9260;49.998;19.880;2023-05-07T07:50:19;7.50;1.00
18268;DHT22;9260;49.998;19.880;2023-05-07T08:00:43;7.60;1.00
18268;DHT22;9260;49.998;19.880;2023-05-07T08:10:48;8.00;1.00
18268;DHT22;9260;49.998;19.880;2023-05-07T08:21:00;7.80;1.00
18268;DHT22;9260;49.998;19.880;2023-05-07T08:31:06;8.10;1.00
18268;DHT22;9260;49.998;19.880;2023-05-07T08:41:12;7.80;1.00
18268;DHT22;9260;49.998;19.880;2023-05-07T08:51:21;8.00;1.00
18268;DHT22;9260;49.998;19.880;2023-05-07T09:01:25;7.70;1.00
18268;DHT22;9260;49.998;19.880;2023-05-07T09:11:31;8.00;1.00
18268;DHT22;9260;49.998;19.880;2023-05-07T09:21:36;8.30;1.00
18268;DHT22;9260;49.998;19.880;2023-05-07T09:31:46;8.70;1.00
18268;DHT22;9260;49.998;19.880;2023-05-07T09:41:51;8.20;1.00
18268;DHT22;9260;49.998;19.880;2023-05-07T09:52:07;8.90;1.00
18268;DHT22;9260;49.998;19.880;2023-05-07T10:02:18;7.90;1.00
18268;DHT22;9260;49.998;19.880;2023-05-07T10:12:28;8.00;1.00
18268;DHT22;9260;49.998;19.880;2023-05-07T10:22:33;7.70;1.00
18268;DHT22;9260;49.998;19.880;2023-05-07T10:32:42;8.40;1.00
18268;DHT22;9260;49.998;19.880;2023-05-07T10:42:54;8.50;1.00
18268;DHT22;9260;49.998;19.880;2023-05-07T11:14:44;8.70;1.00
18268;DHT22;9260;49.998;19.880;2023-05-07T11:25:03;8.70;1.00
18268;DHT22;9260;49.998;19.880;2023-05-07T11:35:09;8.70;1.00
18268;DHT22;9260;49.998;19.880;2023-05-07T11:45:22;8.50;1.00
18268;DHT22;9260;49.998;19.880;2023-05-07T11:55:27;8.40;1.00
18268;DHT22;9260;49.998;19.880;2023-05-07T12:05:30;8.80;1.00
18268;DHT22;9260;49.998;19.880;2023-05-07T12:15:36;8.40;1.00
18268;DHT22;9260;49.998;19.880;2023-05-07T12:25:39;8.80;1.00
18268;DHT22;9260;49.998;19.880;2023-05-07T12:35:49;9.60;1.00
18268;DHT22;9260;49.998;19.880;2023-05-07T12:45:53;8.80;1.00
18268;DHT22;9260;49.998;19.880;2023-05-07T12:55:59;8.80;1.00
18268;DHT22;9260;49.998;19.880;2023-05-07T13:06:03;8.70;1.00
18268;DHT22;9260;49.998;19.880;2023-05-07T13:16:09;8.80;1.00
18268;DHT22;9260;49.998;19.880;2023-05-07T13:26:13;8.40;1.00
18268;DHT22;9260;49.998;19.880;2023-05-07T13:36:29;8.00;1.00
18268;DHT22;9260;49.998;19.880;2023-05-07T13:46:34;8.70;1.00
18268;DHT22;9260;49.998;19.880;2023-05-07T13:56:39;8.00;1.00
18268;DHT22;9260;49.998;19.880;2023-05-07T14:06:42;8.10;1.00
18268;DHT22;9260;49.998;19.880;2023-05-07T14:16:47;7.80;1.00
18268;DHT22;9260;49.998;19.880;2023-05-07T14:26:53;9.10;1.00
18268;DHT22;9260;49.998;19.880;2023-05-07T14:36:59;8.20;1.00
18268;DHT22;9260;49.998;19.880;2023-05-07T14:47:03;8.20;1.00
18268;DHT22;9260;49.998;19.880;2023-05-07T14:57:08;8.20;1.00
18268;DHT22;9260;49.998;19.880;2023-05-07T15:07:12;7.90;1.00
18268;DHT22;9260;49.998;19.880;2023-05-07T15:17:18;7.60;1.00
18268;DHT22;9260;49.998;19.880;2023-05-07T15:27:21;7.20;1.00
18268;DHT22;9260;49.998;19.880;2023-05-07T15:37:25;7.70;1.00
18268;DHT22;9260;49.998;19.880;2023-05-07T15:47:29;6.80;1.00
18268;DHT22;9260;49.998;19.880;2023-05-07T15:57:36;6.70;1.00
18268;DHT22;9260;49.998;19.880;2023-05-07T16:07:40;6.50;1.00
18268;DHT22;9260;49.998;19.880;2023-05-07T16:17:46;6.40;1.00
18268;DHT22;9260;49.998;19.880;2023-05-07T16:27:51;6.20;1.00
18268;DHT22;9260;49.998;19.880;2023-05-07T16:37:56;6.20;1.00
18268;DHT22;9260;49.998;19.880;2023-05-07T16:47:59;6.50;1.00
18268;DHT22;9260;49.998;19.880;2023-05-07T16:58:05;6.20;1.00
18268;DHT22;9260;49.998;19.880;2023-05-07T17:08:09;6.30;1.00
18268;DHT22;9260;49.998;19.880;2023-05-07T17:18:16;6.00;1.00
18268;DHT22;9260;49.998;19.880;2023-05-07T17:28:19;7.00;1.00
18268;DHT22;9260;49.998;19.880;2023-05-07T17:38:26;5.70;1.00
18268;DHT22;9260;49.998;19.880;2023-05-07T17:48:30;6.10;1.00
18268;DHT22;9260;49.998;19.880;2023-05-07T17:58:34;5.70;1.00
18268;DHT22;9260;49.998;19.880;2023-05-07T18:08:58;5.90;1.00
18268;DHT22;9260;49.998;19.880;2023-05-07T18:19:02;5.50;1.00
18268;DHT22;9260;49.998;19.880;2023-05-07T18:29:05;5.90;1.00
18268;DHT22;9260;49.998;19.880;2023-05-07T18:39:10;5.50;1.00
18268;DHT22;9260;49.998;19.880;2023-05-07T18:49:13;5.70;1.00
18268;DHT22;9260;49.998;19.880;2023-05-07T18:59:18;5.50;1.00
18268;DHT22;9260;49.998;19.880;2023-05-07T19:09:21;6.00;1.00
18268;DHT22;9260;49.998;19.880;2023-05-07T19:19:26;5.40;1.00
18268;DHT22;9260;49.998;19.880;2023-05-07T19:29:29;5.50;1.00
18268;DHT22;9260;49.998;19.880;2023-05-07T19:39:34;5.30;1.00
18268;DHT22;9260;49.998;19.880;2023-05-07T19:49:37;5.60;1.00
18268;DHT22;9260;49.998;19.880;2023-05-07T19:59:42;5.10;1.00
18268;DHT22;9260;49.998;19.880;2023-05-07T20:09:45;5.40;1.00
18268;DHT22;9260;49.998;19.880;2023-05-07T20:19:50;5.10;1.00
18268;DHT22;9260;49.998;19.880;2023-05-07T20:29:53;5.30;1.00
18268;DHT22;9260;49.998;19.880;2023-05-07T20:39:57;4.90;1.00
18268;DHT22;9260;49.998;19.880;2023-05-07T20:50:00;5.30;1.00
18268;DHT22;9260;49.998;19.880;2023-05-07T21:00:06;4.90;1.00
18268;DHT22;9260;49.998;19.880;2023-05-07T21:10:10;5.10;1.00
18268;DHT22;9260;49.998;19.880;2023-05-07T21:20:15;4.90;1.00
18268;DHT22;9260;49.998;19.880;2023-05-07T21:30:18;4.80;1.00
18268;DHT22;9260;49.998;19.880;2023-05-07T21:40:23;4.90;1.00
18268;DHT22;9260;49.998;19.880;2023-05-07T22:01:04;4.90;1.00
18268;DHT22;9260;49.998;19.880;2023-05-07T22:11:07;5.00;1.00
18268;DHT22;9260;49.998;19.880;2023-05-07T22:21:11;4.70;1.00
18268;DHT22;9260;49.998;19.880;2023-05-07T22:31:15;4.90;1.00
18268;DHT22;9260;49.998;19.880;2023-05-07T22:41:19;4.70;1.00
18268;DHT22;9260;49.998;19.880;2023-05-07T22:51:22;5.00;1.00
18268;DHT22;9260;49.998;19.880;2023-05-07T23:01:28;4.70;1.00
18268;DHT22;9260;49.998;19.880;2023-05-07T23:11:31;5.00;1.00
18268;DHT22;9260;49.998;19.880;2023-05-07T23:21:36;4.70;1.00
18268;DHT22;9260;49.998;19.880;2023-05-07T23:31:39;4.90;1.00
18268;DHT22;9260;49.998;19.880;2023-05-07T23:41:43;4.70;1.00
18268;DHT22;9260;49.998;19.880;2023-05-07T23:51:47;4.90;1.00
